createdAt,value
2018-07-07T00:00:33.681Z,1011.2
2018-07-07T00:01:35.982Z,1011.2
2018-07-07T00:02:38.011Z,1011.2
2018-07-07T00:03:40.339Z,1011.2
2018-07-07T00:04:42.645Z,1011.2
2018-07-07T00:05:44.679Z,1011.2
2018-07-07T00:06:46.709Z,1011.2
2018-07-07T00:07:48.747Z,1011.2
2018-07-07T00:08:50.788Z,1011.2
2018-07-07T00:09:52.829Z,1011.2
2018-07-07T00:10:55.170Z,1011.2
2018-07-07T00:11:57.212Z,1011.2
2018-07-07T00:12:59.247Z,1011.2
2018-07-07T00:14:01.566Z,1011.2
2018-07-07T00:15:03.909Z,1011.2
2018-07-07T00:16:05.951Z,1011.2
2018-07-07T00:17:07.979Z,1011.2
2018-07-07T00:18:10.017Z,1011.2
2018-07-07T00:19:12.048Z,1011.2
2018-07-07T00:20:14.087Z,1011.2
2018-07-07T00:21:16.124Z,1011.2
2018-07-07T00:22:18.157Z,1011.1
2018-07-07T00:23:20.190Z,1011.2
2018-07-07T00:24:22.227Z,1011.2
2018-07-07T00:25:24.266Z,1011.2
2018-07-07T00:26:26.303Z,1011.2
2018-07-07T00:27:28.332Z,1011.3
2018-07-07T00:28:30.370Z,1011.2
2018-07-07T00:29:32.402Z,1011.3
2018-07-07T00:30:34.723Z,1011.3
2018-07-07T00:31:36.765Z,1011.2
2018-07-07T00:32:38.803Z,1011.2
2018-07-07T00:33:40.834Z,1011.2
2018-07-07T00:34:42.874Z,1011.3
2018-07-07T00:35:44.900Z,1011.2
2018-07-07T00:36:47.244Z,1011.2
2018-07-07T00:37:49.586Z,1011.2
2018-07-07T00:38:51.625Z,1011.3
2018-07-07T00:39:53.655Z,1011.3
2018-07-07T00:40:55.689Z,1011.3
2018-07-07T00:41:57.717Z,1011.3
2018-07-07T00:42:59.748Z,1011.3
2018-07-07T00:44:01.785Z,1011.3
2018-07-07T00:45:03.816Z,1011.3
2018-07-07T00:46:06.231Z,1011.3
2018-07-07T00:47:08.263Z,1011.3
2018-07-07T00:48:10.301Z,1011.3
2018-07-07T00:49:12.330Z,1011.3
2018-07-07T00:50:14.371Z,1011.3
2018-07-07T00:51:16.775Z,1011.3
2018-07-07T00:52:18.822Z,1011.3
2018-07-07T00:53:21.133Z,1011.2
2018-07-07T00:54:23.524Z,1011.3
2018-07-07T00:55:25.771Z,1011.3
2018-07-07T00:56:27.804Z,1011.3
2018-07-07T00:57:30.223Z,1011.2
2018-07-07T00:58:32.261Z,1011.2
2018-07-07T00:59:34.295Z,1011.3
2018-07-07T01:00:36.339Z,1011.2
2018-07-07T01:01:38.364Z,1011.2
2018-07-07T01:02:40.402Z,1011.2
2018-07-07T01:03:42.433Z,1011.2
2018-07-07T01:04:44.466Z,1011.2
2018-07-07T01:05:46.495Z,1011.2
2018-07-07T01:06:48.533Z,1011.3
2018-07-07T01:07:50.564Z,1011.3
2018-07-07T01:08:52.603Z,1011.2
2018-07-07T01:09:54.625Z,1011.2
2018-07-07T01:10:56.965Z,1011.2
2018-07-07T01:11:59.382Z,1011.2
2018-07-07T01:13:01.422Z,1011.2
2018-07-07T01:14:03.454Z,1011.2
2018-07-07T01:15:05.492Z,1011.2
2018-07-07T01:16:07.530Z,1011.2
2018-07-07T01:17:09.840Z,1011.2
2018-07-07T01:18:11.869Z,1011.2
2018-07-07T01:19:13.914Z,1011.2
2018-07-07T01:20:16.243Z,1011.2
2018-07-07T01:21:18.283Z,1011.2
2018-07-07T01:22:20.309Z,1011.2
2018-07-07T01:23:22.340Z,1011.2
2018-07-07T01:24:24.391Z,1011.2
2018-07-07T01:25:26.420Z,1011.2
2018-07-07T01:26:28.446Z,1011.2
2018-07-07T01:27:30.486Z,1011.2
2018-07-07T01:28:32.520Z,1011.3
2018-07-07T01:29:34.556Z,1011.2
2018-07-07T01:30:36.861Z,1011.2
2018-07-07T01:31:38.904Z,1011.2
2018-07-07T01:32:40.938Z,1011.2
2018-07-07T01:33:42.962Z,1011.2
2018-07-07T01:34:45.003Z,1011.3
2018-07-07T01:35:47.039Z,1011.2
2018-07-07T01:36:49.072Z,1011.3
2018-07-07T01:37:51.143Z,1011.2
2018-07-07T01:38:53.566Z,1011.2
2018-07-07T01:39:55.598Z,1011.3
2018-07-07T01:40:57.624Z,1011.3
2018-07-07T01:41:59.658Z,1011.3
2018-07-07T01:43:01.701Z,1011.2
2018-07-07T01:44:03.735Z,1011.2
2018-07-07T01:45:05.773Z,1011.3
2018-07-07T01:46:07.803Z,1011.2
2018-07-07T01:47:09.840Z,1011.3
2018-07-07T01:48:11.867Z,1011.2
2018-07-07T01:49:14.188Z,1011.3
2018-07-07T01:50:16.236Z,1011.2
2018-07-07T01:51:18.267Z,1011.2
2018-07-07T01:52:20.292Z,1011.2
2018-07-07T01:53:22.333Z,1011.2
2018-07-07T01:54:24.360Z,1011.2
2018-07-07T01:55:26.384Z,1011.2
2018-07-07T01:56:28.428Z,1011.2
2018-07-07T01:57:30.745Z,1011.2
2018-07-07T01:58:32.784Z,1011.2
2018-07-07T01:59:35.102Z,1011.2
2018-07-07T02:00:37.217Z,1011.1
2018-07-07T02:01:39.562Z,1011.2
2018-07-07T02:02:41.591Z,1011.2
2018-07-07T02:03:43.627Z,1011.2
2018-07-07T02:04:45.653Z,1011.2
2018-07-07T02:05:48.070Z,1011.2
2018-07-07T02:06:50.114Z,1011.2
2018-07-07T02:07:52.426Z,1011.1
2018-07-07T02:08:54.454Z,1011.1
2018-07-07T02:09:56.488Z,1011.2
2018-07-07T02:10:58.522Z,1011.2
2018-07-07T02:12:00.562Z,1011.1
2018-07-07T02:13:02.583Z,1011.1
2018-07-07T02:14:05.023Z,1011.1
2018-07-07T02:15:07.344Z,1011.1
2018-07-07T02:16:09.369Z,1011.1
2018-07-07T02:17:11.412Z,1011.1
2018-07-07T02:18:13.439Z,1011.2
2018-07-07T02:19:15.863Z,1011.1
2018-07-07T02:20:17.914Z,1011.1
2018-07-07T02:21:19.931Z,1011.1
2018-07-07T02:22:22.265Z,1011.2
2018-07-07T02:23:24.282Z,1011.2
2018-07-07T02:24:26.317Z,1011.2
2018-07-07T02:25:28.743Z,1011.1
2018-07-07T02:26:30.775Z,1011.2
2018-07-07T02:27:32.815Z,1011.2
2018-07-07T02:28:34.858Z,1011.2
2018-07-07T02:29:37.169Z,1011.2
2018-07-07T02:30:39.211Z,1011.2
2018-07-07T02:31:41.904Z,1011.2
2018-07-07T02:32:43.951Z,1011.2
2018-07-07T02:33:45.991Z,1011.2
2018-07-07T02:34:48.404Z,1011.2
2018-07-07T02:35:51.056Z,1011.2
2018-07-07T02:36:53.091Z,1011.2
2018-07-07T02:37:55.120Z,1011.2
2018-07-07T02:38:57.166Z,1011.2
2018-07-07T02:39:59.187Z,1011.2
2018-07-07T02:41:01.232Z,1011.2
2018-07-07T02:42:04.335Z,1011.2
2018-07-07T02:43:06.658Z,1011.2
2018-07-07T02:44:08.702Z,1011.3
2018-07-07T02:45:11.004Z,1011.3
2018-07-07T02:46:13.371Z,1011.3
2018-07-07T02:47:15.385Z,1011.2
2018-07-07T02:48:17.707Z,1011.3
2018-07-07T02:49:20.046Z,1011.3
2018-07-07T02:50:22.074Z,1011.3
2018-07-07T02:51:24.104Z,1011.3
2018-07-07T02:52:26.521Z,1011.3
2018-07-07T02:53:28.547Z,1011.3
2018-07-07T02:54:30.595Z,1011.3
2018-07-07T02:55:33.007Z,1011.3
2018-07-07T02:56:35.038Z,1011.4
2018-07-07T02:57:37.466Z,1011.4
2018-07-07T02:58:39.489Z,1011.3
2018-07-07T02:59:41.528Z,1011.3
2018-07-07T03:00:43.858Z,1011.3
2018-07-07T03:01:46.474Z,1011.3
2018-07-07T03:02:49.105Z,1011.4
2018-07-07T03:03:51.128Z,1011.4
2018-07-07T03:04:53.170Z,1011.4
2018-07-07T03:05:55.482Z,1011.4
2018-07-07T03:06:57.514Z,1011.4
2018-07-07T03:07:59.569Z,1011.4
2018-07-07T03:09:01.879Z,1011.4
2018-07-07T03:10:03.910Z,1011.4
2018-07-07T03:11:06.330Z,1011.3
2018-07-07T03:12:08.360Z,1011.4
2018-07-07T03:13:10.788Z,1011.4
2018-07-07T03:14:12.816Z,1011.4
2018-07-07T03:15:14.851Z,1011.4
2018-07-07T03:16:16.881Z,1011.4
2018-07-07T03:17:19.869Z,1011.4
2018-07-07T03:18:21.913Z,1011.3
2018-07-07T03:19:24.340Z,1011.4
2018-07-07T03:20:26.657Z,1011.4
2018-07-07T03:21:28.700Z,1011.4
2018-07-07T03:22:31.048Z,1011.4
2018-07-07T03:23:33.081Z,1011.4
2018-07-07T03:24:35.113Z,1011.4
2018-07-07T03:25:37.160Z,1011.4
2018-07-07T03:26:39.508Z,1011.4
2018-07-07T03:27:41.526Z,1011.4
2018-07-07T03:28:43.561Z,1011.4
2018-07-07T03:29:45.604Z,1011.4
2018-07-07T03:30:47.914Z,1011.5
2018-07-07T03:31:51.582Z,1011.4
2018-07-07T03:32:53.618Z,1011.4
2018-07-07T03:33:55.648Z,1011.5
2018-07-07T03:34:57.682Z,1011.5
2018-07-07T03:36:00.102Z,1011.4
2018-07-07T03:37:02.432Z,1011.5
2018-07-07T03:38:04.800Z,1011.5
2018-07-07T03:39:06.799Z,1011.5
2018-07-07T03:40:08.845Z,1011.5
2018-07-07T03:41:10.874Z,1011.5
2018-07-07T03:42:12.945Z,1011.5
2018-07-07T03:43:14.952Z,1011.5
2018-07-07T03:44:17.371Z,1011.5
2018-07-07T03:45:19.412Z,1011.5
2018-07-07T03:46:21.438Z,1011.4
2018-07-07T03:47:23.470Z,1011.5
2018-07-07T03:48:25.508Z,1011.4
2018-07-07T03:49:27.674Z,1011.5
2018-07-07T03:50:29.570Z,1011.4
2018-07-07T03:51:31.598Z,1011.5
2018-07-07T03:52:33.911Z,1011.5
2018-07-07T03:53:35.948Z,1011.5
2018-07-07T03:54:38.268Z,1011.4
2018-07-07T03:55:40.298Z,1011.5
2018-07-07T03:56:42.332Z,1011.5
2018-07-07T03:57:44.365Z,1011.5
2018-07-07T03:58:46.430Z,1011.5
2018-07-07T03:59:48.878Z,1011.5
2018-07-07T04:00:51.206Z,1011.5
2018-07-07T04:01:53.249Z,1011.5
2018-07-07T04:02:55.280Z,1011.5
2018-07-07T04:03:57.317Z,1011.6
2018-07-07T04:04:59.351Z,1011.5
2018-07-07T04:06:01.385Z,1011.5
2018-07-07T04:07:03.724Z,1011.5
2018-07-07T04:08:05.763Z,1011.5
2018-07-07T04:09:08.173Z,1011.5
2018-07-07T04:10:10.607Z,1011.5
2018-07-07T04:11:12.926Z,1011.5
2018-07-07T04:12:14.972Z,1011.5
2018-07-07T04:13:17.003Z,1011.5
2018-07-07T04:14:19.340Z,1011.5
2018-07-07T04:15:21.377Z,1011.5
2018-07-07T04:16:23.411Z,1011.5
2018-07-07T04:17:25.757Z,1011.5
2018-07-07T04:18:27.797Z,1011.6
2018-07-07T04:19:29.818Z,1011.5
2018-07-07T04:20:31.859Z,1011.5
2018-07-07T04:21:34.272Z,1011.6
2018-07-07T04:22:36.312Z,1011.6
2018-07-07T04:23:38.349Z,1011.5
2018-07-07T04:24:40.389Z,1011.6
2018-07-07T04:25:42.419Z,1011.5
2018-07-07T04:26:44.750Z,1011.5
2018-07-07T04:27:47.060Z,1011.5
2018-07-07T04:28:49.106Z,1011.5
2018-07-07T04:29:51.145Z,1011.5
2018-07-07T04:30:53.175Z,1011.5
2018-07-07T04:31:55.211Z,1011.6
2018-07-07T04:32:57.529Z,1011.5
2018-07-07T04:33:59.849Z,1011.5
2018-07-07T04:35:01.889Z,1011.5
2018-07-07T04:36:03.915Z,1011.5
2018-07-07T04:37:05.949Z,1011.5
2018-07-07T04:38:07.988Z,1011.5
2018-07-07T04:39:10.020Z,1011.5
2018-07-07T04:40:12.402Z,1011.5
2018-07-07T04:41:14.430Z,1011.6
2018-07-07T04:42:16.469Z,1011.6
2018-07-07T04:43:18.883Z,1011.4
2018-07-07T04:44:21.298Z,1011.5
2018-07-07T04:45:23.345Z,1011.5
2018-07-07T04:46:25.671Z,1011.5
2018-07-07T04:47:28.099Z,1011.5
2018-07-07T04:48:30.526Z,1011.5
2018-07-07T04:49:32.566Z,1011.6
2018-07-07T04:50:34.587Z,1011.5
2018-07-07T04:51:36.623Z,1011.5
2018-07-07T04:52:38.663Z,1011.5
2018-07-07T04:53:40.686Z,1011.6
2018-07-07T04:54:43.392Z,1011.6
2018-07-07T04:55:45.727Z,1011.6
2018-07-07T04:56:47.759Z,1011.5
2018-07-07T04:57:49.790Z,1011.6
2018-07-07T04:58:51.819Z,1011.5
2018-07-07T04:59:53.858Z,1011.5
2018-07-07T05:00:55.892Z,1011.5
2018-07-07T05:01:57.923Z,1011.5
2018-07-07T05:02:59.957Z,1011.6
2018-07-07T05:04:01.994Z,1011.6
2018-07-07T05:05:04.418Z,1011.5
2018-07-07T05:06:06.842Z,1011.6
2018-07-07T05:07:08.882Z,1011.6
2018-07-07T05:08:10.910Z,1011.6
2018-07-07T05:09:12.954Z,1011.6
2018-07-07T05:10:14.985Z,1011.6
2018-07-07T05:11:17.015Z,1011.5
2018-07-07T05:12:19.057Z,1011.5
2018-07-07T05:13:21.094Z,1011.6
2018-07-07T05:14:23.131Z,1011.6
2018-07-07T05:15:25.186Z,1011.6
2018-07-07T05:16:27.497Z,1011.7
2018-07-07T05:17:29.826Z,1011.7
2018-07-07T05:18:31.849Z,1011.6
2018-07-07T05:19:33.891Z,1011.6
2018-07-07T05:20:35.936Z,1011.7
2018-07-07T05:21:38.258Z,1011.7
2018-07-07T05:22:40.294Z,1011.7
2018-07-07T05:23:42.324Z,1011.6
2018-07-07T05:24:44.639Z,1011.7
2018-07-07T05:25:47.075Z,1011.7
2018-07-07T05:26:49.120Z,1011.7
2018-07-07T05:27:51.558Z,1011.7
2018-07-07T05:28:53.593Z,1011.7
2018-07-07T05:29:55.636Z,1011.7
2018-07-07T05:30:57.661Z,1011.8
2018-07-07T05:31:59.724Z,1011.7
2018-07-07T05:33:01.737Z,1011.7
2018-07-07T05:34:04.162Z,1011.7
2018-07-07T05:35:06.192Z,1011.7
2018-07-07T05:36:08.236Z,1011.8
2018-07-07T05:37:10.696Z,1011.8
2018-07-07T05:38:12.690Z,1011.7
2018-07-07T05:39:14.723Z,1011.8
2018-07-07T05:40:16.772Z,1011.7
2018-07-07T05:41:19.084Z,1011.8
2018-07-07T05:42:21.125Z,1011.8
2018-07-07T05:43:23.542Z,1011.8
2018-07-07T05:44:25.583Z,1011.8
2018-07-07T05:45:27.609Z,1011.8
2018-07-07T05:46:29.640Z,1011.8
2018-07-07T05:47:31.671Z,1011.9
2018-07-07T05:48:33.710Z,1011.8
2018-07-07T05:49:35.741Z,1011.8
2018-07-07T05:50:38.071Z,1011.8
2018-07-07T05:51:40.096Z,1011.8
2018-07-07T05:52:42.133Z,1011.8
2018-07-07T05:53:44.176Z,1011.8
2018-07-07T05:54:46.214Z,1011.9
2018-07-07T05:55:48.249Z,1011.8
2018-07-07T05:56:50.292Z,1011.8
2018-07-07T05:57:52.330Z,1011.9
2018-07-07T05:58:54.370Z,1011.9
2018-07-07T05:59:56.399Z,1011.9
2018-07-07T06:00:58.445Z,1011.9
2018-07-07T06:02:00.476Z,1011.9
2018-07-07T06:03:02.793Z,1011.9
2018-07-07T06:04:04.833Z,1011.9
2018-07-07T06:05:06.879Z,1011.9
2018-07-07T06:06:08.899Z,1011.9
2018-07-07T06:07:10.941Z,1011.9
2018-07-07T06:08:12.975Z,1011.9
2018-07-07T06:09:15.007Z,1011.9
2018-07-07T06:10:17.328Z,1011.9
2018-07-07T06:11:19.360Z,1011.8
2018-07-07T06:12:21.388Z,1011.9
2018-07-07T06:13:23.832Z,1011.8
2018-07-07T06:14:25.944Z,1011.8
2018-07-07T06:15:29.164Z,1011.8
2018-07-07T06:16:31.199Z,1011.8
2018-07-07T06:17:33.236Z,1011.9
2018-07-07T06:18:35.657Z,1011.9
2018-07-07T06:19:37.708Z,1011.9
2018-07-07T06:20:39.742Z,1011.9
2018-07-07T06:21:41.777Z,1011.9
2018-07-07T06:22:44.094Z,1012
2018-07-07T06:23:46.136Z,1011.9
2018-07-07T06:24:48.172Z,1011.9
2018-07-07T06:25:50.219Z,1012
2018-07-07T06:26:52.638Z,1011.9
2018-07-07T06:27:54.671Z,1011.9
2018-07-07T06:28:56.711Z,1012
2018-07-07T06:29:58.748Z,1011.9
2018-07-07T06:31:00.788Z,1011.9
2018-07-07T06:32:03.117Z,1012
2018-07-07T06:33:05.161Z,1011.9
2018-07-07T06:34:07.488Z,1012
2018-07-07T06:35:09.526Z,1011.9
2018-07-07T06:36:11.953Z,1011.9
2018-07-07T06:37:14.627Z,1012
2018-07-07T06:38:17.068Z,1012
2018-07-07T06:39:19.095Z,1012
2018-07-07T06:40:21.511Z,1012
2018-07-07T06:41:23.556Z,1012
2018-07-07T06:42:25.590Z,1012
2018-07-07T06:43:27.623Z,1012
2018-07-07T06:44:29.942Z,1012
2018-07-07T06:45:31.990Z,1012
2018-07-07T06:46:34.026Z,1012.1
2018-07-07T06:47:36.051Z,1012
2018-07-07T06:48:38.096Z,1012.1
2018-07-07T06:49:40.128Z,1012.1
2018-07-07T06:50:42.166Z,1012.1
2018-07-07T06:51:44.501Z,1012.1
2018-07-07T06:52:46.541Z,1012.1
2018-07-07T06:53:48.642Z,1012.1
2018-07-07T06:54:50.608Z,1012.2
2018-07-07T06:55:52.649Z,1012.1
2018-07-07T06:56:54.689Z,1012.1
2018-07-07T06:57:56.720Z,1012
2018-07-07T06:58:58.763Z,1012.1
2018-07-07T07:00:00.890Z,1012.1
2018-07-07T07:01:04.312Z,1012.1
2018-07-07T07:02:06.349Z,1012.2
2018-07-07T07:03:08.393Z,1012.1
2018-07-07T07:04:10.439Z,1012.2
2018-07-07T07:05:12.460Z,1012.1
2018-07-07T07:06:14.790Z,1012.2
2018-07-07T07:07:16.838Z,1012.2
2018-07-07T07:08:18.881Z,1012.2
2018-07-07T07:09:20.926Z,1012.2
2018-07-07T07:10:22.967Z,1012.2
2018-07-07T07:11:25.005Z,1012.3
2018-07-07T07:12:27.368Z,1012.2
2018-07-07T07:13:29.695Z,1012.2
2018-07-07T07:14:32.129Z,1012.2
2018-07-07T07:15:34.476Z,1012.2
2018-07-07T07:16:36.515Z,1012.2
2018-07-07T07:17:38.607Z,1012.2
2018-07-07T07:18:41.015Z,1012.2
2018-07-07T07:19:43.347Z,1012.3
2018-07-07T07:20:45.378Z,1012.2
2018-07-07T07:21:47.716Z,1012.3
2018-07-07T07:22:49.757Z,1012.3
2018-07-07T07:23:51.788Z,1012.3
2018-07-07T07:24:54.115Z,1012.3
2018-07-07T07:25:56.560Z,1012.2
2018-07-07T07:26:59.235Z,1012.2
2018-07-07T07:28:01.673Z,1012.2
2018-07-07T07:29:03.706Z,1012.2
2018-07-07T07:30:05.748Z,1012.3
2018-07-07T07:31:07.781Z,1012.2
2018-07-07T07:32:09.830Z,1012.2
2018-07-07T07:33:11.880Z,1012.3
2018-07-07T07:34:14.211Z,1012.1
2018-07-07T07:35:16.249Z,1012.2
2018-07-07T07:36:18.283Z,1012.2
2018-07-07T07:37:20.319Z,1012.2
2018-07-07T07:38:22.367Z,1012.2
2018-07-07T07:39:24.421Z,1012.2
2018-07-07T07:40:26.835Z,1012.2
2018-07-07T07:41:29.177Z,1012.2
2018-07-07T07:42:31.220Z,1012.2
2018-07-07T07:43:33.255Z,1012.2
2018-07-07T07:44:35.981Z,1012.2
2018-07-07T07:45:38.014Z,1012.2
2018-07-07T07:46:40.060Z,1012.1
2018-07-07T07:47:42.100Z,1012.2
2018-07-07T07:48:44.136Z,1012.2
2018-07-07T07:49:46.179Z,1012.2
2018-07-07T07:50:48.219Z,1012.1
2018-07-07T07:51:50.929Z,1012.2
2018-07-07T07:52:53.029Z,1012.2
2018-07-07T07:53:55.524Z,1012.1
2018-07-07T07:54:57.577Z,1012.2
2018-07-07T07:55:59.920Z,1012.2
2018-07-07T07:57:01.959Z,1012.2
2018-07-07T07:58:03.999Z,1012.2
2018-07-07T07:59:06.219Z,1012.1
2018-07-07T08:00:09.515Z,1012.1
2018-07-07T08:01:11.557Z,1012.1
2018-07-07T08:02:13.604Z,1012.2
2018-07-07T08:03:16.028Z,1012.2
2018-07-07T08:04:18.066Z,1012.2
2018-07-07T08:05:20.108Z,1012.2
2018-07-07T08:06:22.158Z,1012.2
2018-07-07T08:07:24.199Z,1012.2
2018-07-07T08:08:26.228Z,1012.1
2018-07-07T08:09:28.288Z,1012.1
2018-07-07T08:10:30.610Z,1012.2
2018-07-07T08:11:32.928Z,1012.2
2018-07-07T08:12:34.976Z,1012.2
2018-07-07T08:13:37.022Z,1012.2
2018-07-07T08:14:39.069Z,1012.2
2018-07-07T08:15:41.104Z,1012.2
2018-07-07T08:16:43.155Z,1012.2
2018-07-07T08:17:45.193Z,1012.2
2018-07-07T08:18:47.243Z,1012.2
2018-07-07T08:19:49.606Z,1012.3
2018-07-07T08:20:51.642Z,1012.2
2018-07-07T08:21:53.690Z,1012.2
2018-07-07T08:22:55.787Z,1012.1
2018-07-07T08:23:58.714Z,1012.2
2018-07-07T08:25:00.760Z,1012.2
2018-07-07T08:26:02.798Z,1012.2
2018-07-07T08:27:04.839Z,1012.3
2018-07-07T08:28:07.166Z,1012.3
2018-07-07T08:29:09.590Z,1012.2
2018-07-07T08:30:11.637Z,1012.3
2018-07-07T08:31:13.674Z,1012.2
2018-07-07T08:32:15.713Z,1012.2
2018-07-07T08:33:17.763Z,1012.3
2018-07-07T08:34:20.101Z,1012.2
2018-07-07T08:35:22.106Z,1012.3
2018-07-07T08:36:24.175Z,1012.2
2018-07-07T08:37:27.098Z,1012.2
2018-07-07T08:38:29.144Z,1012.3
2018-07-07T08:39:31.188Z,1012.3
2018-07-07T08:40:33.514Z,1012.2
2018-07-07T08:41:35.936Z,1012.2
2018-07-07T08:42:37.988Z,1012.2
2018-07-07T08:43:40.027Z,1012.3
2018-07-07T08:44:42.067Z,1012.2
2018-07-07T08:45:44.106Z,1012.3
2018-07-07T08:46:46.739Z,1012.3
2018-07-07T08:47:48.785Z,1012.3
2018-07-07T08:48:50.903Z,1012.3
2018-07-07T08:49:53.000Z,1012.2
2018-07-07T08:50:55.052Z,1012.2
2018-07-07T08:51:57.081Z,1012.3
2018-07-07T08:53:02.359Z,1012.2
2018-07-07T08:54:08.947Z,1012.2
2018-07-07T08:55:13.456Z,1012.2
2018-07-07T08:56:20.886Z,1012.3
2018-07-07T08:57:24.212Z,1012.2
2018-07-07T08:58:27.293Z,1012.2
2018-07-07T08:59:29.348Z,1012.3
2018-07-07T09:00:31.400Z,1012.2
2018-07-07T09:01:33.441Z,1012.2
2018-07-07T09:02:35.485Z,1012.2
2018-07-07T09:03:37.542Z,1012.2
2018-07-07T09:04:39.581Z,1012.2
2018-07-07T09:05:41.934Z,1012.2
2018-07-07T09:06:43.992Z,1012.2
2018-07-07T09:07:46.049Z,1012.2
2018-07-07T09:08:48.088Z,1012.3
2018-07-07T09:09:50.131Z,1012.3
2018-07-07T09:10:52.474Z,1012.2
2018-07-07T09:11:54.517Z,1012.2
2018-07-07T09:12:56.555Z,1012.2
2018-07-07T09:13:58.612Z,1012.2
2018-07-07T09:15:00.666Z,1012.2
2018-07-07T09:16:02.703Z,1012.2
2018-07-07T09:17:05.037Z,1012.2
2018-07-07T09:18:07.082Z,1012.2
2018-07-07T09:19:09.129Z,1012.1
2018-07-07T09:20:11.478Z,1012.1
2018-07-07T09:21:14.202Z,1012.1
2018-07-07T09:22:16.719Z,1012.2
2018-07-07T09:23:18.778Z,1012.2
2018-07-07T09:24:20.809Z,1012.2
2018-07-07T09:25:23.376Z,1012.1
2018-07-07T09:26:25.476Z,1012.2
2018-07-07T09:27:29.286Z,1012.1
2018-07-07T09:28:31.610Z,1012.1
2018-07-07T09:29:34.236Z,1012.1
2018-07-07T09:30:36.579Z,1012.1
2018-07-07T09:31:38.937Z,1012
2018-07-07T09:32:40.968Z,1012
2018-07-07T09:33:43.024Z,1012
2018-07-07T09:34:45.063Z,1012.1
2018-07-07T09:35:47.394Z,1012.1
2018-07-07T09:36:49.445Z,1012
2018-07-07T09:37:51.477Z,1012
2018-07-07T09:38:55.044Z,1012
2018-07-07T09:39:57.009Z,1011.9
2018-07-07T09:40:59.060Z,1012
2018-07-07T09:42:01.096Z,1012
2018-07-07T09:43:03.145Z,1012
2018-07-07T09:44:05.204Z,1012
2018-07-07T09:45:07.234Z,1011.9
2018-07-07T09:46:09.283Z,1011.8
2018-07-07T09:47:11.328Z,1011.9
2018-07-07T09:48:13.387Z,1011.8
2018-07-07T09:49:15.804Z,1011.9
2018-07-07T09:50:17.850Z,1011.9
2018-07-07T09:51:20.191Z,1012
2018-07-07T09:52:22.230Z,1011.9
2018-07-07T09:53:24.285Z,1011.9
2018-07-07T09:54:26.329Z,1011.9
2018-07-07T09:55:28.764Z,1011.9
2018-07-07T09:56:31.097Z,1011.8
2018-07-07T09:57:33.140Z,1011.9
2018-07-07T09:58:35.204Z,1011.8
2018-07-07T09:59:37.252Z,1011.9
2018-07-07T10:00:39.288Z,1011.9
2018-07-07T10:01:41.637Z,1011.8
2018-07-07T10:02:44.078Z,1011.9
2018-07-07T10:03:46.510Z,1011.9
2018-07-07T10:04:48.572Z,1011.8
2018-07-07T10:05:50.610Z,1011.9
2018-07-07T10:06:52.990Z,1011.9
2018-07-07T10:07:55.030Z,1011.8
2018-07-07T10:08:57.077Z,1011.9
2018-07-07T10:09:59.135Z,1012
2018-07-07T10:11:01.473Z,1012
2018-07-07T10:12:03.524Z,1012
2018-07-07T10:13:05.570Z,1012
2018-07-07T10:14:08.304Z,1012
2018-07-07T10:15:11.033Z,1012
2018-07-07T10:16:13.077Z,1011.9
2018-07-07T10:17:15.122Z,1012
2018-07-07T10:18:17.173Z,1012
2018-07-07T10:19:19.527Z,1012
2018-07-07T10:20:21.963Z,1011.9
2018-07-07T10:21:24.293Z,1012
2018-07-07T10:22:26.484Z,1012
2018-07-07T10:23:28.586Z,1012
2018-07-07T10:24:30.636Z,1012
2018-07-07T10:25:32.687Z,1011.9
2018-07-07T10:26:35.119Z,1012
2018-07-07T10:27:37.173Z,1012
2018-07-07T10:28:39.229Z,1012
2018-07-07T10:29:41.271Z,1012
2018-07-07T10:30:43.332Z,1011.9
2018-07-07T10:31:45.380Z,1012
2018-07-07T10:32:47.421Z,1011.9
2018-07-07T10:33:49.765Z,1012
2018-07-07T10:34:51.814Z,1012
2018-07-07T10:35:53.861Z,1012
2018-07-07T10:36:55.919Z,1012
2018-07-07T10:37:58.279Z,1012
2018-07-07T10:39:00.351Z,1012
2018-07-07T10:40:02.403Z,1012
2018-07-07T10:41:04.779Z,1012
2018-07-07T10:42:06.800Z,1012
2018-07-07T10:43:08.855Z,1011.9
2018-07-07T10:44:10.907Z,1011.8
2018-07-07T10:45:12.959Z,1012
2018-07-07T10:46:15.018Z,1011.9
2018-07-07T10:47:17.077Z,1011.8
2018-07-07T10:48:19.109Z,1012
2018-07-07T10:49:21.162Z,1012
2018-07-07T10:50:23.222Z,1011.8
2018-07-07T10:51:25.277Z,1012
2018-07-07T10:52:27.632Z,1012
2018-07-07T10:53:29.967Z,1012.1
2018-07-07T10:54:32.016Z,1012
2018-07-07T10:55:34.763Z,1012
2018-07-07T10:56:36.797Z,1012
2018-07-07T10:57:38.855Z,1012
2018-07-07T10:58:40.956Z,1012
2018-07-07T10:59:43.301Z,1012
2018-07-07T11:00:45.356Z,1011.9
2018-07-07T11:01:47.405Z,1012
2018-07-07T11:02:49.465Z,1012
2018-07-07T11:03:51.810Z,1012
2018-07-07T11:04:53.848Z,1012
2018-07-07T11:05:55.900Z,1012
2018-07-07T11:06:57.953Z,1012.1
2018-07-07T11:08:00.006Z,1012
2018-07-07T11:09:02.059Z,1012.2
2018-07-07T11:10:04.106Z,1012.1
2018-07-07T11:11:06.157Z,1012
2018-07-07T11:12:08.288Z,1012
2018-07-07T11:13:10.259Z,1012
2018-07-07T11:14:12.330Z,1011.9
2018-07-07T11:15:14.385Z,1011.9
2018-07-07T11:16:16.719Z,1012
2018-07-07T11:17:18.771Z,1011.9
2018-07-07T11:18:20.823Z,1012
2018-07-07T11:19:22.874Z,1012.1
2018-07-07T11:20:24.932Z,1012.1
2018-07-07T11:21:26.996Z,1012
2018-07-07T11:22:29.049Z,1012
2018-07-07T11:23:31.094Z,1012
2018-07-07T11:24:33.147Z,1012
2018-07-07T11:25:35.497Z,1012
2018-07-07T11:26:37.553Z,1012
2018-07-07T11:27:39.621Z,1012
2018-07-07T11:28:41.654Z,1012
2018-07-07T11:29:43.743Z,1012
2018-07-07T11:30:45.767Z,1012
2018-07-07T11:31:47.815Z,1011.9
2018-07-07T11:32:49.873Z,1011.9
2018-07-07T11:33:52.216Z,1012
2018-07-07T11:34:54.269Z,1011.9
2018-07-07T11:35:56.331Z,1012
2018-07-07T11:36:58.423Z,1011.9
2018-07-07T11:38:00.438Z,1011.9
2018-07-07T11:39:02.773Z,1011.9
2018-07-07T11:40:04.820Z,1011.9
2018-07-07T11:41:06.877Z,1011.9
2018-07-07T11:42:09.349Z,1011.9
2018-07-07T11:43:11.366Z,1011.9
2018-07-07T11:44:13.434Z,1012
2018-07-07T11:45:15.465Z,1011.9
2018-07-07T11:46:17.537Z,1011.9
2018-07-07T11:47:19.576Z,1011.9
2018-07-07T11:48:21.633Z,1012
2018-07-07T11:49:23.692Z,1011.8
2018-07-07T11:50:26.175Z,1012
2018-07-07T11:51:28.181Z,1011.8
2018-07-07T11:52:30.241Z,1011.9
2018-07-07T11:53:32.287Z,1011.9
2018-07-07T11:54:34.354Z,1011.9
2018-07-07T11:55:36.690Z,1011.7
2018-07-07T11:56:38.756Z,1011.9
2018-07-07T11:57:40.809Z,1011.9
2018-07-07T11:58:42.856Z,1011.8
2018-07-07T11:59:44.906Z,1011.8
2018-07-07T12:00:46.958Z,1011.8
2018-07-07T12:01:49.328Z,1011.8
2018-07-07T12:02:51.383Z,1011.8
2018-07-07T12:03:53.470Z,1011.8
2018-07-07T12:04:55.545Z,1011.8
2018-07-07T12:05:58.030Z,1011.9
2018-07-07T12:07:00.086Z,1011.7
2018-07-07T12:08:13.785Z,1011.9
2018-07-07T12:09:04.576Z,1011.9
2018-07-07T12:10:06.913Z,1011.9
2018-07-07T12:11:09.027Z,1011.8
2018-07-07T12:12:12.502Z,1011.8
2018-07-07T12:13:14.963Z,1011.7
2018-07-07T12:14:17.437Z,1011.8
2018-07-07T12:15:19.928Z,1011.7
2018-07-07T12:16:22.471Z,1011.8
2018-07-07T12:17:24.986Z,1011.8
2018-07-07T12:18:27.501Z,1011.8
2018-07-07T12:19:29.937Z,1011.8
2018-07-07T12:20:32.345Z,1011.9
2018-07-07T12:21:37.229Z,1011.8
2018-07-07T12:22:41.878Z,1011.8
2018-07-07T12:23:45.127Z,1012
2018-07-07T12:24:53.184Z,1011.9
2018-07-07T12:25:58.451Z,1011.9
2018-07-07T12:27:01.790Z,1011.8
2018-07-07T12:28:04.172Z,1011.8
2018-07-07T12:29:07.558Z,1011.9
2018-07-07T12:30:14.816Z,1011.9
2018-07-07T12:31:17.153Z,1011.8
2018-07-07T12:32:19.657Z,1011.9
2018-07-07T12:33:22.336Z,1011.9
2018-07-07T12:34:25.143Z,1011.8
2018-07-07T12:35:28.798Z,1011.8
2018-07-07T12:36:30.883Z,1011.9
2018-07-07T12:37:33.231Z,1011.8
2018-07-07T12:38:35.287Z,1011.8
2018-07-07T12:39:37.643Z,1011.8
2018-07-07T12:40:39.696Z,1011.8
2018-07-07T12:41:41.742Z,1011.7
2018-07-07T12:42:43.826Z,1011.8
2018-07-07T12:43:45.875Z,1011.8
2018-07-07T12:44:47.974Z,1011.7
2018-07-07T12:45:50.464Z,1011.7
2018-07-07T12:46:52.479Z,1011.7
2018-07-07T12:47:54.543Z,1011.7
2018-07-07T12:48:56.600Z,1011.6
2018-07-07T12:49:58.966Z,1011.6
2018-07-07T12:51:01.031Z,1011.7
2018-07-07T12:52:03.455Z,1011.6
2018-07-07T12:53:06.007Z,1011.7
2018-07-07T12:54:08.059Z,1011.8
2018-07-07T12:55:10.404Z,1011.8
2018-07-07T12:56:12.461Z,1011.8
2018-07-07T12:57:14.514Z,1011.8
2018-07-07T12:58:16.850Z,1011.8
2018-07-07T12:59:18.899Z,1011.7
2018-07-07T13:00:21.236Z,1011.7
2018-07-07T13:01:23.292Z,1011.7
2018-07-07T13:02:26.004Z,1011.8